createdAt,value
2019-03-15T00:04:19.905Z,5.13
2019-03-15T00:09:06.867Z,4.10
2019-03-15T00:13:51.464Z,2.63
2019-03-15T00:18:36.154Z,3.10
2019-03-15T00:23:20.832Z,4.80
2019-03-15T00:28:05.436Z,4.67
2019-03-15T00:32:50.405Z,2.93
2019-03-15T00:37:35.407Z,2.07
2019-03-15T00:42:19.976Z,3.63
2019-03-15T00:47:04.775Z,2.80
2019-03-15T00:51:49.509Z,2.27
2019-03-15T00:56:34.064Z,8.83
2019-03-15T01:01:18.677Z,4.67
2019-03-15T01:06:03.274Z,4.47
2019-03-15T01:10:48.072Z,3.50
2019-03-15T01:15:32.873Z,5.30
2019-03-15T01:20:17.367Z,6.53
2019-03-15T01:25:02.031Z,3.00
2019-03-15T01:29:46.599Z,2.80
2019-03-15T01:34:31.234Z,4.40
2019-03-15T01:39:15.824Z,5.03
2019-03-15T01:44:00.690Z,5.20
2019-03-15T01:48:45.296Z,3.07
2019-03-15T01:53:29.955Z,3.70
2019-03-15T01:58:14.647Z,4.93
2019-03-15T02:03:02.090Z,5.57
2019-03-15T02:07:45.515Z,5.90
2019-03-15T02:12:30.309Z,6.97
2019-03-15T02:17:14.883Z,3.60
2019-03-15T02:21:59.550Z,2.77
2019-03-15T02:26:44.418Z,5.30
2019-03-15T02:31:29.077Z,5.77
2019-03-15T02:36:14.107Z,2.20
2019-03-15T02:40:58.973Z,4.27
2019-03-15T02:45:43.684Z,3.30
2019-03-15T02:50:29.242Z,2.77
2019-03-15T02:55:13.901Z,2.80
2019-03-15T02:59:58.460Z,3.17
2019-03-15T03:04:43.082Z,2.17
2019-03-15T03:09:27.669Z,5.97
2019-03-15T03:14:12.226Z,3.93
2019-03-15T03:18:57.049Z,4.27
2019-03-15T03:23:41.843Z,2.90
2019-03-15T03:28:27.976Z,4.27
2019-03-15T03:33:12.950Z,3.27
2019-03-15T03:37:57.731Z,3.83
2019-03-15T03:42:42.323Z,2.60
2019-03-15T03:47:26.915Z,4.73
2019-03-15T03:52:11.624Z,4.63
2019-03-15T03:56:56.546Z,3.27
2019-03-15T04:01:41.100Z,4.83
2019-03-15T04:06:25.714Z,6.60
2019-03-15T04:11:10.240Z,5.07
2019-03-15T04:15:54.802Z,4.60
2019-03-15T04:20:39.341Z,3.80
2019-03-15T04:25:23.884Z,6.07
2019-03-15T04:30:09.201Z,6.43
2019-03-15T04:34:53.960Z,4.47
2019-03-15T04:39:38.575Z,6.17
2019-03-15T04:44:23.230Z,4.33
2019-03-15T04:49:08.024Z,3.87
2019-03-15T04:53:52.544Z,4.33
2019-03-15T04:58:37.186Z,5.17
2019-03-15T05:03:21.788Z,7.20
2019-03-15T05:08:06.419Z,8.23
2019-03-15T05:12:51.006Z,5.77
2019-03-15T05:17:35.736Z,4.50
2019-03-15T05:22:20.254Z,6.10
2019-03-15T05:27:04.784Z,3.87
2019-03-15T05:31:49.290Z,5.50
2019-03-15T05:36:34.108Z,5.20
2019-03-15T05:41:18.910Z,2.83
2019-03-15T05:46:03.468Z,5.97
2019-03-15T05:50:48.174Z,5.67
2019-03-15T05:55:32.687Z,3.70
2019-03-15T06:00:17.539Z,4.27
2019-03-15T06:05:02.073Z,4.03
2019-03-15T06:09:46.755Z,4.17
2019-03-15T06:14:31.539Z,5.63
2019-03-15T06:19:16.210Z,6.00
2019-03-15T06:24:00.731Z,4.70
2019-03-15T06:28:45.511Z,7.07
2019-03-15T06:33:29.997Z,5.37
2019-03-15T06:38:14.740Z,9.50
2019-03-15T06:42:59.354Z,5.30
2019-03-15T06:47:43.957Z,5.13
2019-03-15T06:52:28.583Z,10.33
2019-03-15T06:57:13.230Z,6.50
2019-03-15T07:01:57.763Z,5.70
2019-03-15T07:06:42.887Z,5.90
2019-03-15T07:11:27.425Z,9.20
2019-03-15T07:16:11.999Z,6.57
2019-03-15T07:20:56.571Z,10.13
2019-03-15T07:25:41.107Z,5.53
2019-03-15T07:30:25.595Z,8.73
2019-03-15T07:35:10.081Z,8.10
2019-03-15T07:39:54.801Z,6.57
2019-03-15T07:44:39.432Z,4.20
2019-03-15T07:49:24.118Z,7.73
2019-03-15T07:54:08.795Z,12.53
2019-03-15T07:58:53.349Z,5.13
2019-03-15T08:03:37.914Z,6.33
2019-03-15T08:08:22.575Z,6.43
2019-03-15T08:13:07.200Z,8.27
2019-03-15T08:17:51.806Z,6.30
2019-03-15T08:22:36.317Z,4.17
2019-03-15T08:27:21.299Z,5.40
2019-03-15T08:32:06.462Z,9.00
2019-03-15T08:36:51.151Z,8.57
2019-03-15T08:41:35.708Z,5.73
2019-03-15T08:46:20.245Z,7.03
2019-03-15T08:51:04.836Z,9.20
2019-03-15T08:55:49.393Z,6.80
2019-03-15T09:00:33.950Z,7.90
2019-03-15T09:05:18.456Z,5.93
2019-03-15T09:10:03.627Z,6.90
2019-03-15T09:14:48.755Z,7.50
2019-03-15T09:19:33.286Z,2.93
2019-03-15T09:24:18.156Z,4.77
2019-03-15T09:29:02.749Z,8.37
2019-03-15T09:33:47.366Z,7.70
2019-03-15T09:38:31.942Z,4.13
2019-03-15T09:43:16.504Z,6.93
2019-03-15T09:48:01.139Z,7.70
2019-03-15T09:52:46.010Z,7.33
2019-03-15T09:57:30.543Z,7.83
2019-03-15T10:02:15.186Z,8.67
2019-03-15T10:06:59.678Z,8.80
2019-03-15T10:11:44.257Z,7.90
2019-03-15T10:16:29.051Z,5.63
2019-03-15T10:21:13.630Z,5.73
2019-03-15T10:25:58.433Z,7.00
2019-03-15T10:30:42.861Z,7.87
2019-03-15T10:35:27.567Z,7.30
2019-03-15T10:40:14.077Z,6.03
2019-03-15T10:44:58.750Z,8.47
2019-03-15T10:49:43.341Z,4.63
2019-03-15T10:54:27.829Z,7.43
2019-03-15T10:59:12.516Z,6.07
2019-03-15T11:03:57.032Z,5.40
2019-03-15T11:08:43.231Z,7.57
2019-03-15T11:13:27.704Z,6.77
2019-03-15T11:18:12.249Z,8.03
2019-03-15T11:22:57.051Z,5.50
2019-03-15T11:27:41.692Z,5.57
2019-03-15T11:32:26.225Z,4.13
2019-03-15T11:37:10.833Z,4.73
2019-03-15T11:41:55.475Z,4.57
2019-03-15T11:46:40.058Z,4.40
2019-03-15T11:51:24.671Z,3.80
2019-03-15T11:56:09.217Z,5.17
2019-03-15T12:00:53.919Z,5.60
2019-03-15T12:05:38.375Z,2.87
2019-03-15T12:10:22.970Z,1.50
2019-03-15T12:15:08.857Z,3.23
2019-03-15T12:19:53.490Z,1.67
2019-03-15T12:24:38.059Z,3.13
2019-03-15T12:29:22.595Z,1.47
2019-03-15T12:34:07.220Z,1.53
2019-03-15T12:38:51.797Z,1.20
2019-03-15T12:43:36.421Z,1.63
2019-03-15T12:48:21.039Z,2.27
2019-03-15T12:53:05.704Z,1.70
2019-03-15T12:57:50.313Z,1.60
2019-03-15T13:02:34.877Z,1.70
2019-03-15T13:07:19.429Z,1.30
2019-03-15T13:12:03.980Z,2.70
2019-03-15T13:16:48.653Z,3.90
2019-03-15T13:21:33.190Z,0.63
2019-03-15T13:26:17.809Z,1.17
2019-03-15T13:31:02.396Z,0.90
2019-03-15T13:35:46.973Z,0.57
2019-03-15T13:40:31.649Z,0.77
2019-03-15T13:45:18.680Z,1.63
2019-03-15T13:50:04.195Z,0.87
2019-03-15T13:54:48.767Z,0.60
2019-03-15T13:59:33.439Z,0.83
2019-03-15T14:04:18.032Z,0.60
2019-03-15T14:09:02.866Z,0.90
2019-03-15T14:13:47.470Z,1.33
2019-03-15T14:18:32.172Z,0.70
2019-03-15T14:23:16.887Z,0.90
2019-03-15T14:28:01.508Z,0.83
2019-03-15T14:32:46.159Z,1.20
2019-03-15T14:37:30.700Z,0.70
2019-03-15T14:42:15.731Z,0.60
2019-03-15T14:47:00.333Z,0.60
2019-03-15T14:51:44.980Z,1.23
2019-03-15T14:56:29.528Z,0.50
2019-03-15T15:01:14.242Z,0.80
2019-03-15T15:05:58.978Z,1.60
2019-03-15T15:10:46.226Z,0.60
2019-03-15T15:15:30.919Z,0.80
2019-03-15T15:20:15.542Z,0.73
2019-03-15T15:25:00.419Z,1.60
2019-03-15T15:29:45.121Z,0.70
2019-03-15T15:34:29.634Z,0.80
2019-03-15T15:39:14.161Z,0.70
2019-03-15T15:43:58.705Z,0.83
2019-03-15T15:48:43.395Z,1.20
2019-03-15T15:53:28.090Z,0.97
2019-03-15T15:58:17.977Z,1.20
2019-03-15T16:02:59.130Z,0.80
2019-03-15T16:07:43.765Z,1.00
2019-03-15T16:12:28.469Z,1.13
2019-03-15T16:17:13.216Z,0.70
2019-03-15T16:21:57.714Z,1.40
2019-03-15T16:26:42.447Z,1.03
2019-03-15T16:31:27.126Z,1.07
2019-03-15T16:36:11.895Z,0.80
2019-03-15T16:40:56.521Z,0.80
2019-03-15T16:45:41.290Z,0.77
2019-03-15T16:50:25.890Z,0.60
2019-03-15T16:55:10.924Z,0.70
2019-03-15T16:59:55.596Z,1.00
2019-03-15T17:04:40.156Z,1.20
2019-03-15T17:09:24.729Z,1.50
2019-03-15T17:14:09.254Z,1.10
2019-03-15T17:18:53.995Z,1.20
2019-03-15T17:23:38.423Z,0.63
2019-03-15T17:28:23.028Z,1.27
2019-03-15T17:33:07.610Z,0.80
2019-03-15T17:37:52.108Z,0.67
2019-03-15T17:42:37.108Z,0.97
2019-03-15T17:47:21.771Z,1.60
2019-03-15T17:52:06.347Z,1.13
2019-03-15T17:56:50.942Z,0.73
2019-03-15T18:01:36.044Z,0.83
2019-03-15T18:06:20.657Z,0.83
2019-03-15T18:11:05.355Z,1.13
2019-03-15T18:15:50.294Z,0.93
2019-03-15T18:20:35.000Z,1.97
2019-03-15T18:25:19.759Z,1.30
2019-03-15T18:30:05.419Z,1.33
2019-03-15T18:34:50.203Z,1.30
2019-03-15T18:39:34.937Z,3.27
2019-03-15T18:44:20.062Z,4.90
2019-03-15T18:49:04.689Z,2.10
2019-03-15T18:53:49.379Z,3.97
2019-03-15T18:58:34.049Z,3.47
2019-03-15T19:03:18.754Z,4.30
2019-03-15T19:08:03.389Z,4.43
2019-03-15T19:12:48.104Z,4.40
2019-03-15T19:17:32.729Z,3.50
2019-03-15T19:22:17.615Z,4.13
2019-03-15T19:27:02.300Z,3.13
2019-03-15T19:31:47.026Z,2.37
2019-03-15T19:36:31.605Z,4.67
2019-03-15T19:41:16.490Z,3.30
2019-03-15T19:46:11.572Z,2.53
2019-03-15T19:50:56.380Z,3.30
2019-03-15T19:55:41.077Z,3.17
2019-03-15T20:00:25.641Z,3.23
2019-03-15T20:05:10.320Z,2.30
2019-03-15T20:09:55.041Z,2.70
2019-03-15T20:14:39.560Z,2.73
2019-03-15T20:19:24.222Z,1.70
2019-03-15T20:24:09.168Z,1.30
2019-03-15T20:28:53.911Z,2.17
2019-03-15T20:33:38.920Z,2.77
2019-03-15T20:38:23.910Z,1.53
2019-03-15T20:43:09.029Z,4.83
2019-03-15T20:47:53.971Z,3.67
2019-03-15T20:52:38.659Z,4.53
2019-03-15T20:57:23.427Z,2.60
2019-03-15T21:02:08.256Z,4.10
2019-03-15T21:06:52.865Z,2.20
2019-03-15T21:11:37.639Z,5.23
2019-03-15T21:16:22.349Z,4.00
2019-03-15T21:21:07.068Z,5.20
2019-03-15T21:25:52.107Z,4.67
2019-03-15T21:30:47.755Z,4.70
2019-03-15T21:35:25.440Z,2.53
2019-03-15T21:40:11.104Z,2.47
2019-03-15T21:44:55.906Z,5.07
2019-03-15T21:49:40.542Z,3.30
2019-03-15T21:54:25.084Z,4.30
2019-03-15T21:59:09.821Z,2.30
2019-03-15T22:03:56.756Z,1.17
2019-03-15T22:08:44.305Z,1.40
2019-03-15T22:13:31.692Z,3.03
2019-03-15T22:18:17.631Z,3.40
2019-03-15T22:23:02.680Z,2.10
2019-03-15T22:27:50.163Z,3.27
2019-03-15T22:32:33.843Z,2.30
2019-03-15T22:37:18.508Z,1.03
2019-03-15T22:42:06.371Z,2.50
2019-03-15T22:46:50.827Z,1.30
2019-03-15T22:51:35.563Z,3.47
2019-03-15T22:56:20.152Z,3.67
2019-03-15T23:01:04.970Z,2.77
2019-03-15T23:05:49.549Z,3.83
2019-03-15T23:10:34.183Z,2.93
2019-03-15T23:15:18.760Z,2.90
2019-03-15T23:20:03.262Z,4.13
2019-03-15T23:24:47.885Z,2.57
2019-03-15T23:29:32.473Z,2.43
2019-03-15T23:34:17.027Z,2.67
2019-03-15T23:39:01.675Z,2.63
2019-03-15T23:43:46.350Z,5.07
2019-03-15T23:48:30.977Z,3.07
2019-03-15T23:53:15.458Z,6.03
2019-03-15T23:58:00.178Z,1.20
